sensor_id;sensor_type;location;lat;lon;timestamp;P1;durP1;ratioP1;P2;durP2;ratioP2
14892;SDS011;7538;53.626;9.906;2022-08-01T00:02:18;14.90;;;13.50;;
14892;SDS011;7538;53.626;9.906;2022-08-01T00:04:45;16.08;;;14.23;;
14892;SDS011;7538;53.626;9.906;2022-08-01T00:07:12;16.30;;;14.65;;
14892;SDS011;7538;53.626;9.906;2022-08-01T00:09:40;17.45;;;15.65;;
14892;SDS011;7538;53.626;9.906;2022-08-01T00:12:07;15.55;;;14.00;;
14892;SDS011;7538;53.626;9.906;2022-08-01T00:14:34;16.25;;;14.65;;
14892;SDS011;7538;53.626;9.906;2022-08-01T00:17:01;16.67;;;14.23;;
14892;SDS011;7538;53.626;9.906;2022-08-01T00:19:29;15.85;;;13.85;;
14892;SDS011;7538;53.626;9.906;2022-08-01T00:21:56;15.13;;;13.63;;
14892;SDS011;7538;53.626;9.906;2022-08-01T00:24:23;15.98;;;14.32;;
14892;SDS011;7538;53.626;9.906;2022-08-01T00:26:51;17.23;;;14.88;;
14892;SDS011;7538;53.626;9.906;2022-08-01T00:29:18;17.48;;;15.65;;
14892;SDS011;7538;53.626;9.906;2022-08-01T00:31:45;15.70;;;13.57;;
14892;SDS011;7538;53.626;9.906;2022-08-01T00:34:12;19.00;;;17.00;;
14892;SDS011;7538;53.626;9.906;2022-08-01T00:36:39;16.05;;;14.30;;
14892;SDS011;7538;53.626;9.906;2022-08-01T00:39:06;18.65;;;15.75;;
14892;SDS011;7538;53.626;9.906;2022-08-01T00:41:33;16.40;;;13.48;;
14892;SDS011;7538;53.626;9.906;2022-08-01T00:44:03;16.80;;;15.07;;
14892;SDS011;7538;53.626;9.906;2022-08-01T00:46:30;15.05;;;13.50;;
14892;SDS011;7538;53.626;9.906;2022-08-01T00:48:57;16.17;;;14.38;;
14892;SDS011;7538;53.626;9.906;2022-08-01T00:51:25;19.75;;;15.43;;
14892;SDS011;7538;53.626;9.906;2022-08-01T00:53:52;15.68;;;14.07;;
14892;SDS011;7538;53.626;9.906;2022-08-01T00:56:20;16.42;;;14.70;;
14892;SDS011;7538;53.626;9.906;2022-08-01T00:58:47;17.23;;;15.18;;
14892;SDS011;7538;53.626;9.906;2022-08-01T01:01:16;17.30;;;14.15;;
14892;SDS011;7538;53.626;9.906;2022-08-01T01:03:45;16.10;;;14.40;;
14892;SDS011;7538;53.626;9.906;2022-08-01T01:06:20;17.33;;;13.15;;
14892;SDS011;7538;53.626;9.906;2022-08-01T01:08:54;15.60;;;13.02;;
14892;SDS011;7538;53.626;9.906;2022-08-01T01:11:32;14.57;;;13.07;;
14892;SDS011;7538;53.626;9.906;2022-08-01T01:14:08;13.10;;;11.40;;
14892;SDS011;7538;53.626;9.906;2022-08-01T01:16:46;14.30;;;12.88;;
14892;SDS011;7538;53.626;9.906;2022-08-01T01:19:16;16.27;;;13.75;;
14892;SDS011;7538;53.626;9.906;2022-08-01T01:21:55;16.73;;;13.27;;
14892;SDS011;7538;53.626;9.906;2022-08-01T01:24:32;14.50;;;12.90;;
14892;SDS011;7538;53.626;9.906;2022-08-01T01:27:06;16.50;;;13.27;;
14892;SDS011;7538;53.626;9.906;2022-08-01T01:29:46;15.40;;;13.02;;
14892;SDS011;7538;53.626;9.906;2022-08-01T01:32:17;17.55;;;14.02;;
14892;SDS011;7538;53.626;9.906;2022-08-01T01:34:45;16.10;;;13.68;;
14892;SDS011;7538;53.626;9.906;2022-08-01T01:37:17;17.98;;;15.45;;
14892;SDS011;7538;53.626;9.906;2022-08-01T01:39:46;17.10;;;14.50;;
14892;SDS011;7538;53.626;9.906;2022-08-01T01:42:15;16.92;;;14.10;;
14892;SDS011;7538;53.626;9.906;2022-08-01T01:44:45;15.63;;;13.52;;
14892;SDS011;7538;53.626;9.906;2022-08-01T01:47:13;19.23;;;14.93;;
14892;SDS011;7538;53.626;9.906;2022-08-01T01:49:43;18.23;;;14.85;;
14892;SDS011;7538;53.626;9.906;2022-08-01T01:52:11;17.80;;;14.98;;
14892;SDS011;7538;53.626;9.906;2022-08-01T01:54:42;16.55;;;14.43;;
14892;SDS011;7538;53.626;9.906;2022-08-01T01:57:13;17.15;;;14.23;;
14892;SDS011;7538;53.626;9.906;2022-08-01T01:59:41;21.55;;;14.38;;
14892;SDS011;7538;53.626;9.906;2022-08-01T02:02:11;16.25;;;13.68;;
14892;SDS011;7538;53.626;9.906;2022-08-01T02:04:41;16.02;;;12.65;;
14892;SDS011;7538;53.626;9.906;2022-08-01T02:07:10;15.93;;;14.18;;
14892;SDS011;7538;53.626;9.906;2022-08-01T02:09:40;16.75;;;14.98;;
14892;SDS011;7538;53.626;9.906;2022-08-01T02:12:09;16.63;;;13.40;;
14892;SDS011;7538;53.626;9.906;2022-08-01T02:14:37;14.95;;;13.38;;
14892;SDS011;7538;53.626;9.906;2022-08-01T02:17:05;15.20;;;12.88;;
14892;SDS011;7538;53.626;9.906;2022-08-01T02:19:34;14.02;;;12.55;;
14892;SDS011;7538;53.626;9.906;2022-08-01T02:22:02;15.15;;;12.85;;
14892;SDS011;7538;53.626;9.906;2022-08-01T02:24:35;15.38;;;12.70;;
14892;SDS011;7538;53.626;9.906;2022-08-01T02:27:06;16.58;;;13.57;;
14892;SDS011;7538;53.626;9.906;2022-08-01T02:29:36;15.30;;;12.98;;
14892;SDS011;7538;53.626;9.906;2022-08-01T02:32:06;14.45;;;12.95;;
14892;SDS011;7538;53.626;9.906;2022-08-01T02:34:38;15.00;;;12.60;;
14892;SDS011;7538;53.626;9.906;2022-08-01T02:37:07;15.15;;;12.73;;
14892;SDS011;7538;53.626;9.906;2022-08-01T02:39:35;13.13;;;11.45;;
14892;SDS011;7538;53.626;9.906;2022-08-01T02:42:05;12.98;;;10.93;;
14892;SDS011;7538;53.626;9.906;2022-08-01T02:44:35;14.90;;;10.60;;
14892;SDS011;7538;53.626;9.906;2022-08-01T02:47:04;12.52;;;11.27;;
14892;SDS011;7538;53.626;9.906;2022-08-01T02:49:33;12.02;;;10.90;;
14892;SDS011;7538;53.626;9.906;2022-08-01T02:52:04;12.63;;;10.40;;
14892;SDS011;7538;53.626;9.906;2022-08-01T02:54:34;10.93;;;9.88;;
14892;SDS011;7538;53.626;9.906;2022-08-01T02:57:02;11.43;;;10.23;;
14892;SDS011;7538;53.626;9.906;2022-08-01T02:59:30;13.52;;;10.32;;
14892;SDS011;7538;53.626;9.906;2022-08-01T03:01:58;9.38;;;8.27;;
14892;SDS011;7538;53.626;9.906;2022-08-01T03:04:26;10.30;;;8.77;;
14892;SDS011;7538;53.626;9.906;2022-08-01T03:06:54;10.13;;;8.43;;
14892;SDS011;7538;53.626;9.906;2022-08-01T03:09:24;8.90;;;8.07;;
14892;SDS011;7538;53.626;9.906;2022-08-01T03:11:52;10.63;;;9.50;;
14892;SDS011;7538;53.626;9.906;2022-08-01T03:14:21;10.43;;;8.30;;
14892;SDS011;7538;53.626;9.906;2022-08-01T03:16:51;9.60;;;7.43;;
14892;SDS011;7538;53.626;9.906;2022-08-01T03:19:18;8.18;;;7.38;;
14892;SDS011;7538;53.626;9.906;2022-08-01T03:21:47;8.52;;;7.68;;
14892;SDS011;7538;53.626;9.906;2022-08-01T03:24:15;8.52;;;6.93;;
14892;SDS011;7538;53.626;9.906;2022-08-01T03:26:44;8.02;;;6.80;;
14892;SDS011;7538;53.626;9.906;2022-08-01T03:29:14;13.05;;;8.07;;
14892;SDS011;7538;53.626;9.906;2022-08-01T03:31:43;13.50;;;7.68;;
14892;SDS011;7538;53.626;9.906;2022-08-01T03:34:12;7.85;;;7.15;;
14892;SDS011;7538;53.626;9.906;2022-08-01T03:36:41;7.93;;;7.03;;
14892;SDS011;7538;53.626;9.906;2022-08-01T03:39:12;10.02;;;8.98;;
14892;SDS011;7538;53.626;9.906;2022-08-01T03:41:42;8.93;;;8.02;;
14892;SDS011;7538;53.626;9.906;2022-08-01T03:44:13;9.15;;;8.13;;
14892;SDS011;7538;53.626;9.906;2022-08-01T03:46:42;9.18;;;8.18;;
14892;SDS011;7538;53.626;9.906;2022-08-01T03:49:14;11.13;;;8.18;;
14892;SDS011;7538;53.626;9.906;2022-08-01T03:51:44;9.60;;;8.60;;
14892;SDS011;7538;53.626;9.906;2022-08-01T03:54:14;8.38;;;6.80;;
14892;SDS011;7538;53.626;9.906;2022-08-01T03:56:43;6.57;;;5.88;;
14892;SDS011;7538;53.626;9.906;2022-08-01T03:59:13;8.25;;;6.03;;
14892;SDS011;7538;53.626;9.906;2022-08-01T04:01:42;6.63;;;5.60;;
14892;SDS011;7538;53.626;9.906;2022-08-01T04:04:11;7.70;;;6.13;;
14892;SDS011;7538;53.626;9.906;2022-08-01T04:06:38;6.50;;;5.80;;
14892;SDS011;7538;53.626;9.906;2022-08-01T04:09:06;6.82;;;5.70;;
14892;SDS011;7538;53.626;9.906;2022-08-01T04:11:33;8.25;;;6.53;;
14892;SDS011;7538;53.626;9.906;2022-08-01T04:14:00;7.00;;;6.22;;
14892;SDS011;7538;53.626;9.906;2022-08-01T04:16:29;7.60;;;5.88;;
14892;SDS011;7538;53.626;9.906;2022-08-01T04:18:56;7.40;;;6.70;;
14892;SDS011;7538;53.626;9.906;2022-08-01T04:21:24;8.02;;;6.80;;
14892;SDS011;7538;53.626;9.906;2022-08-01T04:23:54;8.38;;;6.75;;
14892;SDS011;7538;53.626;9.906;2022-08-01T04:26:24;8.75;;;6.60;;
14892;SDS011;7538;53.626;9.906;2022-08-01T04:28:51;7.78;;;5.80;;
14892;SDS011;7538;53.626;9.906;2022-08-01T04:31:20;6.03;;;5.53;;
14892;SDS011;7538;53.626;9.906;2022-08-01T04:33:52;6.03;;;4.90;;
14892;SDS011;7538;53.626;9.906;2022-08-01T04:36:22;5.93;;;5.43;;
14892;SDS011;7538;53.626;9.906;2022-08-01T04:38:52;7.53;;;5.32;;
14892;SDS011;7538;53.626;9.906;2022-08-01T04:41:21;5.75;;;4.47;;
14892;SDS011;7538;53.626;9.906;2022-08-01T04:43:49;7.57;;;4.40;;
14892;SDS011;7538;53.626;9.906;2022-08-01T04:46:17;5.30;;;3.80;;
14892;SDS011;7538;53.626;9.906;2022-08-01T04:48:44;4.88;;;3.90;;
14892;SDS011;7538;53.626;9.906;2022-08-01T04:51:13;7.00;;;4.70;;
14892;SDS011;7538;53.626;9.906;2022-08-01T04:53:41;3.70;;;3.40;;
14892;SDS011;7538;53.626;9.906;2022-08-01T04:56:08;3.95;;;3.55;;
14892;SDS011;7538;53.626;9.906;2022-08-01T04:58:38;5.35;;;3.22;;
14892;SDS011;7538;53.626;9.906;2022-08-01T05:01:05;3.03;;;2.70;;
14892;SDS011;7538;53.626;9.906;2022-08-01T05:03:32;3.50;;;3.10;;
14892;SDS011;7538;53.626;9.906;2022-08-01T05:05:59;4.82;;;3.00;;
14892;SDS011;7538;53.626;9.906;2022-08-01T05:08:28;3.75;;;3.05;;
14892;SDS011;7538;53.626;9.906;2022-08-01T05:10:55;3.75;;;2.60;;
14892;SDS011;7538;53.626;9.906;2022-08-01T05:13:21;3.15;;;2.38;;
14892;SDS011;7538;53.626;9.906;2022-08-01T05:15:48;3.25;;;2.90;;
14892;SDS011;7538;53.626;9.906;2022-08-01T05:18:17;2.83;;;2.63;;
14892;SDS011;7538;53.626;9.906;2022-08-01T05:20:44;4.38;;;3.30;;
14892;SDS011;7538;53.626;9.906;2022-08-01T05:23:12;3.70;;;3.08;;
14892;SDS011;7538;53.626;9.906;2022-08-01T05:25:40;7.43;;;3.15;;
14892;SDS011;7538;53.626;9.906;2022-08-01T05:28:07;4.05;;;2.97;;
14892;SDS011;7538;53.626;9.906;2022-08-01T05:30:34;3.83;;;3.40;;
14892;SDS011;7538;53.626;9.906;2022-08-01T05:33:01;7.20;;;4.28;;
14892;SDS011;7538;53.626;9.906;2022-08-01T05:35:28;5.22;;;4.55;;
14892;SDS011;7538;53.626;9.906;2022-08-01T05:37:55;4.85;;;4.45;;
14892;SDS011;7538;53.626;9.906;2022-08-01T05:40:22;6.90;;;4.25;;
14892;SDS011;7538;53.626;9.906;2022-08-01T05:42:51;5.05;;;3.83;;
14892;SDS011;7538;53.626;9.906;2022-08-01T05:45:18;5.10;;;3.78;;
14892;SDS011;7538;53.626;9.906;2022-08-01T05:47:45;6.55;;;3.95;;
14892;SDS011;7538;53.626;9.906;2022-08-01T05:50:11;6.18;;;3.78;;
14892;SDS011;7538;53.626;9.906;2022-08-01T05:52:38;6.10;;;4.75;;
14892;SDS011;7538;53.626;9.906;2022-08-01T05:55:06;11.05;;;6.45;;
14892;SDS011;7538;53.626;9.906;2022-08-01T05:57:34;8.63;;;6.07;;
14892;SDS011;7538;53.626;9.906;2022-08-01T06:00:03;7.90;;;6.03;;
14892;SDS011;7538;53.626;9.906;2022-08-01T06:02:30;9.32;;;7.20;;
14892;SDS011;7538;53.626;9.906;2022-08-01T06:04:57;9.15;;;6.65;;
14892;SDS011;7538;53.626;9.906;2022-08-01T06:07:24;7.38;;;6.40;;
14892;SDS011;7538;53.626;9.906;2022-08-01T06:09:51;10.32;;;6.70;;
14892;SDS011;7538;53.626;9.906;2022-08-01T06:12:18;11.63;;;6.50;;
14892;SDS011;7538;53.626;9.906;2022-08-01T06:14:45;7.88;;;5.95;;
14892;SDS011;7538;53.626;9.906;2022-08-01T06:17:13;8.93;;;6.43;;
14892;SDS011;7538;53.626;9.906;2022-08-01T06:19:40;7.60;;;5.85;;
14892;SDS011;7538;53.626;9.906;2022-08-01T06:22:07;9.10;;;6.85;;
14892;SDS011;7538;53.626;9.906;2022-08-01T06:24:34;10.35;;;6.68;;
14892;SDS011;7538;53.626;9.906;2022-08-01T06:27:01;11.35;;;6.88;;
14892;SDS011;7538;53.626;9.906;2022-08-01T06:29:29;10.77;;;8.00;;
14892;SDS011;7538;53.626;9.906;2022-08-01T06:31:56;12.45;;;7.32;;
14892;SDS011;7538;53.626;9.906;2022-08-01T06:34:25;12.73;;;7.75;;
14892;SDS011;7538;53.626;9.906;2022-08-01T06:36:51;9.13;;;8.23;;
14892;SDS011;7538;53.626;9.906;2022-08-01T06:39:18;11.27;;;9.00;;
14892;SDS011;7538;53.626;9.906;2022-08-01T06:41:45;12.02;;;8.15;;
14892;SDS011;7538;53.626;9.906;2022-08-01T06:44:12;11.63;;;8.07;;
14892;SDS011;7538;53.626;9.906;2022-08-01T06:46:39;13.00;;;7.53;;
14892;SDS011;7538;53.626;9.906;2022-08-01T06:49:07;11.32;;;8.05;;
14892;SDS011;7538;53.626;9.906;2022-08-01T06:51:35;14.25;;;7.47;;
14892;SDS011;7538;53.626;9.906;2022-08-01T06:54:02;12.18;;;7.40;;
14892;SDS011;7538;53.626;9.906;2022-08-01T06:56:29;13.80;;;8.48;;
14892;SDS011;7538;53.626;9.906;2022-08-01T06:58:56;11.60;;;8.02;;
14892;SDS011;7538;53.626;9.906;2022-08-01T07:01:25;10.93;;;7.28;;
14892;SDS011;7538;53.626;9.906;2022-08-01T07:03:53;10.85;;;7.63;;
14892;SDS011;7538;53.626;9.906;2022-08-01T07:06:20;9.88;;;7.70;;
14892;SDS011;7538;53.626;9.906;2022-08-01T07:08:48;13.45;;;8.00;;
14892;SDS011;7538;53.626;9.906;2022-08-01T07:11:15;13.82;;;9.18;;
14892;SDS011;7538;53.626;9.906;2022-08-01T07:13:43;16.92;;;9.57;;
14892;SDS011;7538;53.626;9.906;2022-08-01T07:16:11;14.82;;;9.75;;
14892;SDS011;7538;53.626;9.906;2022-08-01T07:18:38;15.10;;;9.07;;
14892;SDS011;7538;53.626;9.906;2022-08-01T07:21:05;15.43;;;9.70;;
14892;SDS011;7538;53.626;9.906;2022-08-01T07:23:32;18.38;;;9.68;;
14892;SDS011;7538;53.626;9.906;2022-08-01T07:26:00;16.33;;;9.23;;
14892;SDS011;7538;53.626;9.906;2022-08-01T07:28:30;10.25;;;6.85;;
14892;SDS011;7538;53.626;9.906;2022-08-01T07:30:57;16.50;;;7.90;;
14892;SDS011;7538;53.626;9.906;2022-08-01T07:33:24;11.75;;;5.85;;
14892;SDS011;7538;53.626;9.906;2022-08-01T07:35:51;16.40;;;5.90;;
14892;SDS011;7538;53.626;9.906;2022-08-01T07:38:18;10.80;;;5.30;;
14892;SDS011;7538;53.626;9.906;2022-08-01T07:40:45;15.48;;;6.38;;
14892;SDS011;7538;53.626;9.906;2022-08-01T07:43:13;15.00;;;5.85;;
14892;SDS011;7538;53.626;9.906;2022-08-01T07:45:40;10.68;;;4.20;;
14892;SDS011;7538;53.626;9.906;2022-08-01T07:48:07;9.63;;;3.70;;
14892;SDS011;7538;53.626;9.906;2022-08-01T07:50:35;10.48;;;3.58;;
14892;SDS011;7538;53.626;9.906;2022-08-01T07:53:02;8.75;;;3.05;;
14892;SDS011;7538;53.626;9.906;2022-08-01T07:55:29;8.25;;;3.10;;
14892;SDS011;7538;53.626;9.906;2022-08-01T07:57:56;8.32;;;3.13;;
14892;SDS011;7538;53.626;9.906;2022-08-01T08:00:24;9.63;;;3.45;;
14892;SDS011;7538;53.626;9.906;2022-08-01T08:02:52;6.72;;;2.95;;
14892;SDS011;7538;53.626;9.906;2022-08-01T08:05:19;9.93;;;3.13;;
14892;SDS011;7538;53.626;9.906;2022-08-01T08:07:46;8.60;;;3.20;;
14892;SDS011;7538;53.626;9.906;2022-08-01T08:10:13;11.50;;;3.42;;
14892;SDS011;7538;53.626;9.906;2022-08-01T08:12:41;9.43;;;3.00;;
14892;SDS011;7538;53.626;9.906;2022-08-01T08:15:08;7.65;;;2.78;;
14892;SDS011;7538;53.626;9.906;2022-08-01T08:17:36;10.73;;;3.45;;
14892;SDS011;7538;53.626;9.906;2022-08-01T08:20:04;7.18;;;2.95;;
14892;SDS011;7538;53.626;9.906;2022-08-01T08:22:32;6.95;;;2.80;;
14892;SDS011;7538;53.626;9.906;2022-08-01T08:24:59;8.57;;;3.00;;
14892;SDS011;7538;53.626;9.906;2022-08-01T08:27:25;8.18;;;2.22;;
14892;SDS011;7538;53.626;9.906;2022-08-01T08:29:52;7.43;;;2.47;;
14892;SDS011;7538;53.626;9.906;2022-08-01T08:32:19;4.25;;;2.05;;
14892;SDS011;7538;53.626;9.906;2022-08-01T08:34:47;7.20;;;2.72;;
14892;SDS011;7538;53.626;9.906;2022-08-01T08:37:14;6.78;;;2.42;;
14892;SDS011;7538;53.626;9.906;2022-08-01T08:39:42;7.13;;;2.55;;
14892;SDS011;7538;53.626;9.906;2022-08-01T08:42:09;7.75;;;2.40;;
14892;SDS011;7538;53.626;9.906;2022-08-01T08:44:37;5.55;;;2.67;;
14892;SDS011;7538;53.626;9.906;2022-08-01T08:47:04;6.50;;;2.28;;
14892;SDS011;7538;53.626;9.906;2022-08-01T08:49:32;5.78;;;2.17;;
14892;SDS011;7538;53.626;9.906;2022-08-01T08:52:03;10.27;;;2.70;;
14892;SDS011;7538;53.626;9.906;2022-08-01T08:54:30;6.53;;;2.55;;
14892;SDS011;7538;53.626;9.906;2022-08-01T08:56:59;4.38;;;2.30;;
14892;SDS011;7538;53.626;9.906;2022-08-01T08:59:27;5.32;;;2.35;;
14892;SDS011;7538;53.626;9.906;2022-08-01T09:01:54;5.13;;;2.47;;
14892;SDS011;7538;53.626;9.906;2022-08-01T09:04:21;7.35;;;2.47;;
14892;SDS011;7538;53.626;9.906;2022-08-01T09:06:48;7.85;;;2.75;;
14892;SDS011;7538;53.626;9.906;2022-08-01T09:09:16;5.68;;;2.47;;
14892;SDS011;7538;53.626;9.906;2022-08-01T09:11:43;5.35;;;2.33;;
14892;SDS011;7538;53.626;9.906;2022-08-01T09:14:12;5.15;;;2.47;;
14892;SDS011;7538;53.626;9.906;2022-08-01T09:16:47;6.60;;;2.58;;
14892;SDS011;7538;53.626;9.906;2022-08-01T09:19:25;7.72;;;2.38;;
14892;SDS011;7538;53.626;9.906;2022-08-01T09:22:02;5.63;;;2.45;;
14892;SDS011;7538;53.626;9.906;2022-08-01T09:24:32;7.70;;;2.88;;
14892;SDS011;7538;53.626;9.906;2022-08-01T09:27:00;7.90;;;2.67;;
14892;SDS011;7538;53.626;9.906;2022-08-01T09:29:40;4.35;;;2.30;;
14892;SDS011;7538;53.626;9.906;2022-08-01T09:32:09;9.45;;;2.42;;
14892;SDS011;7538;53.626;9.906;2022-08-01T09:34:36;6.75;;;2.72;;
14892;SDS011;7538;53.626;9.906;2022-08-01T09:37:03;7.47;;;3.67;;
14892;SDS011;7538;53.626;9.906;2022-08-01T09:39:33;7.07;;;3.05;;
14892;SDS011;7538;53.626;9.906;2022-08-01T09:42:19;8.30;;;2.78;;
14892;SDS011;7538;53.626;9.906;2022-08-01T09:44:47;8.73;;;3.20;;
14892;SDS011;7538;53.626;9.906;2022-08-01T09:47:14;9.63;;;2.95;;
14892;SDS011;7538;53.626;9.906;2022-08-01T09:49:42;6.25;;;2.92;;
14892;SDS011;7538;53.626;9.906;2022-08-01T09:52:11;7.47;;;2.80;;
14892;SDS011;7538;53.626;9.906;2022-08-01T09:54:41;8.13;;;3.00;;
14892;SDS011;7538;53.626;9.906;2022-08-01T09:57:10;8.70;;;3.03;;
14892;SDS011;7538;53.626;9.906;2022-08-01T09:59:40;9.13;;;2.90;;
14892;SDS011;7538;53.626;9.906;2022-08-01T10:02:08;5.15;;;2.92;;
14892;SDS011;7538;53.626;9.906;2022-08-01T10:04:45;6.10;;;2.67;;
14892;SDS011;7538;53.626;9.906;2022-08-01T10:07:12;10.93;;;3.22;;
14892;SDS011;7538;53.626;9.906;2022-08-01T10:09:42;6.38;;;3.28;;
14892;SDS011;7538;53.626;9.906;2022-08-01T10:12:09;10.00;;;7.65;;
14892;SDS011;7538;53.626;9.906;2022-08-01T10:14:38;10.10;;;4.45;;
14892;SDS011;7538;53.626;9.906;2022-08-01T10:17:06;7.95;;;4.03;;
14892;SDS011;7538;53.626;9.906;2022-08-01T10:19:34;6.22;;;3.28;;
14892;SDS011;7538;53.626;9.906;2022-08-01T10:22:03;8.63;;;4.55;;
14892;SDS011;7538;53.626;9.906;2022-08-01T10:24:34;11.40;;;6.35;;
14892;SDS011;7538;53.626;9.906;2022-08-01T10:27:05;14.20;;;9.30;;
14892;SDS011;7538;53.626;9.906;2022-08-01T10:29:35;15.25;;;10.02;;
14892;SDS011;7538;53.626;9.906;2022-08-01T10:32:04;31.33;;;26.95;;
14892;SDS011;7538;53.626;9.906;2022-08-01T10:34:34;20.23;;;13.77;;
14892;SDS011;7538;53.626;9.906;2022-08-01T10:37:02;7.97;;;4.05;;
14892;SDS011;7538;53.626;9.906;2022-08-01T10:39:30;4.82;;;2.63;;
14892;SDS011;7538;53.626;9.906;2022-08-01T10:41:58;5.32;;;2.50;;
14892;SDS011;7538;53.626;9.906;2022-08-01T10:44:27;10.05;;;2.92;;
14892;SDS011;7538;53.626;9.906;2022-08-01T10:46:57;7.20;;;2.25;;
14892;SDS011;7538;53.626;9.906;2022-08-01T10:49:30;8.52;;;2.90;;
14892;SDS011;7538;53.626;9.906;2022-08-01T10:52:01;7.20;;;2.25;;
14892;SDS011;7538;53.626;9.906;2022-08-01T10:54:28;7.32;;;2.70;;
14892;SDS011;7538;53.626;9.906;2022-08-01T10:57:04;6.40;;;2.47;;
14892;SDS011;7538;53.626;9.906;2022-08-01T10:59:33;7.82;;;2.63;;
14892;SDS011;7538;53.626;9.906;2022-08-01T11:02:05;6.22;;;2.05;;
14892;SDS011;7538;53.626;9.906;2022-08-01T11:04:33;5.20;;;2.70;;
14892;SDS011;7538;53.626;9.906;2022-08-01T11:07:07;9.43;;;2.70;;
14892;SDS011;7538;53.626;9.906;2022-08-01T11:09:42;8.48;;;2.58;;
14892;SDS011;7538;53.626;9.906;2022-08-01T11:12:10;5.68;;;2.25;;
14892;SDS011;7538;53.626;9.906;2022-08-01T11:17:41;5.40;;;2.13;;
14892;SDS011;7538;53.626;9.906;2022-08-01T11:20:13;4.45;;;2.20;;
14892;SDS011;7538;53.626;9.906;2022-08-01T11:31:38;6.28;;;2.30;;
14892;SDS011;7538;53.626;9.906;2022-08-01T11:34:07;6.18;;;2.30;;
14892;SDS011;7538;53.626;9.906;2022-08-01T11:36:34;7.70;;;2.28;;
14892;SDS011;7538;53.626;9.906;2022-08-01T11:39:11;6.82;;;2.10;;
14892;SDS011;7538;53.626;9.906;2022-08-01T11:41:42;6.68;;;2.50;;
14892;SDS011;7538;53.626;9.906;2022-08-01T11:44:11;8.25;;;2.55;;
14892;SDS011;7538;53.626;9.906;2022-08-01T11:46:49;6.75;;;2.17;;
14892;SDS011;7538;53.626;9.906;2022-08-01T11:49:30;7.00;;;2.20;;
14892;SDS011;7538;53.626;9.906;2022-08-01T11:52:02;5.28;;;2.00;;
14892;SDS011;7538;53.626;9.906;2022-08-01T11:54:31;6.57;;;2.00;;
14892;SDS011;7538;53.626;9.906;2022-08-01T11:57:00;4.95;;;1.50;;
14892;SDS011;7538;53.626;9.906;2022-08-01T11:59:28;7.18;;;2.05;;
14892;SDS011;7538;53.626;9.906;2022-08-01T12:02:03;5.38;;;1.80;;
14892;SDS011;7538;53.626;9.906;2022-08-01T12:04:45;4.72;;;1.80;;
14892;SDS011;7538;53.626;9.906;2022-08-01T12:07:16;6.60;;;1.95;;
14892;SDS011;7538;53.626;9.906;2022-08-01T12:09:44;3.97;;;1.83;;
14892;SDS011;7538;53.626;9.906;2022-08-01T12:12:11;5.63;;;1.80;;
14892;SDS011;7538;53.626;9.906;2022-08-01T12:14:42;5.30;;;1.90;;
14892;SDS011;7538;53.626;9.906;2022-08-01T12:17:09;8.13;;;2.30;;
14892;SDS011;7538;53.626;9.906;2022-08-01T12:19:36;5.57;;;2.13;;
14892;SDS011;7538;53.626;9.906;2022-08-01T12:22:11;5.72;;;2.15;;
14892;SDS011;7538;53.626;9.906;2022-08-01T12:24:40;7.70;;;1.95;;
14892;SDS011;7538;53.626;9.906;2022-08-01T12:27:08;6.25;;;2.00;;
14892;SDS011;7538;53.626;9.906;2022-08-01T12:29:37;4.25;;;1.70;;
14892;SDS011;7538;53.626;9.906;2022-08-01T12:32:20;5.82;;;2.10;;
14892;SDS011;7538;53.626;9.906;2022-08-01T12:34:50;6.15;;;1.75;;
14892;SDS011;7538;53.626;9.906;2022-08-01T12:37:18;8.98;;;2.15;;
14892;SDS011;7538;53.626;9.906;2022-08-01T12:39:46;6.75;;;2.17;;
14892;SDS011;7538;53.626;9.906;2022-08-01T12:42:13;6.68;;;2.17;;
14892;SDS011;7538;53.626;9.906;2022-08-01T12:44:41;12.30;;;2.58;;
14892;SDS011;7538;53.626;9.906;2022-08-01T12:47:10;3.55;;;2.10;;
14892;SDS011;7538;53.626;9.906;2022-08-01T12:49:37;8.15;;;2.00;;
14892;SDS011;7538;53.626;9.906;2022-08-01T12:52:06;8.45;;;2.35;;
14892;SDS011;7538;53.626;9.906;2022-08-01T12:57:37;6.05;;;2.20;;
14892;SDS011;7538;53.626;9.906;2022-08-01T13:00:09;5.60;;;1.83;;
14892;SDS011;7538;53.626;9.906;2022-08-01T13:02:38;8.02;;;2.00;;
14892;SDS011;7538;53.626;9.906;2022-08-01T13:05:06;6.78;;;1.98;;
14892;SDS011;7538;53.626;9.906;2022-08-01T13:07:35;6.45;;;1.85;;
14892;SDS011;7538;53.626;9.906;2022-08-01T13:10:03;5.45;;;1.73;;
14892;SDS011;7538;53.626;9.906;2022-08-01T13:12:32;5.30;;;2.10;;
14892;SDS011;7538;53.626;9.906;2022-08-01T13:14:59;5.68;;;1.95;;
14892;SDS011;7538;53.626;9.906;2022-08-01T13:17:44;5.75;;;1.95;;
14892;SDS011;7538;53.626;9.906;2022-08-01T13:20:20;5.82;;;1.88;;
14892;SDS011;7538;53.626;9.906;2022-08-01T13:22:51;6.18;;;1.88;;
14892;SDS011;7538;53.626;9.906;2022-08-01T13:25:18;10.07;;;2.28;;
14892;SDS011;7538;53.626;9.906;2022-08-01T13:27:47;6.15;;;2.03;;
14892;SDS011;7538;53.626;9.906;2022-08-01T13:30:15;4.90;;;1.88;;
14892;SDS011;7538;53.626;9.906;2022-08-01T13:32:43;4.57;;;1.58;;
14892;SDS011;7538;53.626;9.906;2022-08-01T13:35:11;3.80;;;1.73;;
14892;SDS011;7538;53.626;9.906;2022-08-01T13:37:39;5.38;;;1.85;;
14892;SDS011;7538;53.626;9.906;2022-08-01T13:40:08;5.00;;;1.60;;
14892;SDS011;7538;53.626;9.906;2022-08-01T13:42:37;4.75;;;2.03;;
14892;SDS011;7538;53.626;9.906;2022-08-01T13:45:06;6.32;;;2.08;;
14892;SDS011;7538;53.626;9.906;2022-08-01T13:47:35;5.82;;;1.63;;
14892;SDS011;7538;53.626;9.906;2022-08-01T13:50:03;5.03;;;1.67;;
14892;SDS011;7538;53.626;9.906;2022-08-01T13:52:30;3.33;;;1.58;;
14892;SDS011;7538;53.626;9.906;2022-08-01T13:54:57;5.18;;;1.83;;
14892;SDS011;7538;53.626;9.906;2022-08-01T13:57:24;3.88;;;1.83;;
14892;SDS011;7538;53.626;9.906;2022-08-01T13:59:51;3.97;;;2.20;;
14892;SDS011;7538;53.626;9.906;2022-08-01T14:02:20;5.10;;;1.90;;
14892;SDS011;7538;53.626;9.906;2022-08-01T14:04:47;5.75;;;1.65;;
14892;SDS011;7538;53.626;9.906;2022-08-01T14:07:14;3.88;;;1.45;;
14892;SDS011;7538;53.626;9.906;2022-08-01T14:09:41;5.35;;;1.60;;
14892;SDS011;7538;53.626;9.906;2022-08-01T14:12:08;3.85;;;1.55;;
14892;SDS011;7538;53.626;9.906;2022-08-01T14:14:35;5.57;;;1.83;;
14892;SDS011;7538;53.626;9.906;2022-08-01T14:17:03;5.20;;;1.80;;
14892;SDS011;7538;53.626;9.906;2022-08-01T14:19:31;6.68;;;1.80;;
14892;SDS011;7538;53.626;9.906;2022-08-01T14:21:58;5.68;;;1.90;;
14892;SDS011;7538;53.626;9.906;2022-08-01T14:24:25;4.40;;;1.45;;
14892;SDS011;7538;53.626;9.906;2022-08-01T14:26:52;5.05;;;2.20;;
14892;SDS011;7538;53.626;9.906;2022-08-01T14:29:19;6.50;;;2.05;;
14892;SDS011;7538;53.626;9.906;2022-08-01T14:31:46;3.78;;;1.67;;
14892;SDS011;7538;53.626;9.906;2022-08-01T14:34:13;4.20;;;1.73;;
14892;SDS011;7538;53.626;9.906;2022-08-01T14:36:42;4.70;;;1.90;;
14892;SDS011;7538;53.626;9.906;2022-08-01T14:39:09;4.28;;;1.88;;
14892;SDS011;7538;53.626;9.906;2022-08-01T14:41:36;7.05;;;1.85;;
14892;SDS011;7538;53.626;9.906;2022-08-01T14:44:03;4.40;;;1.60;;
14892;SDS011;7538;53.626;9.906;2022-08-01T14:46:30;5.32;;;1.98;;
14892;SDS011;7538;53.626;9.906;2022-08-01T14:48:57;5.13;;;2.53;;
14892;SDS011;7538;53.626;9.906;2022-08-01T14:51:24;4.78;;;2.22;;
14892;SDS011;7538;53.626;9.906;2022-08-01T14:53:53;5.30;;;1.80;;
14892;SDS011;7538;53.626;9.906;2022-08-01T14:56:20;5.40;;;2.05;;
14892;SDS011;7538;53.626;9.906;2022-08-01T14:58:47;4.93;;;2.10;;
14892;SDS011;7538;53.626;9.906;2022-08-01T15:01:14;7.03;;;1.95;;
14892;SDS011;7538;53.626;9.906;2022-08-01T15:03:42;5.97;;;1.92;;
14892;SDS011;7538;53.626;9.906;2022-08-01T15:06:10;6.95;;;1.90;;
14892;SDS011;7538;53.626;9.906;2022-08-01T15:08:37;8.38;;;2.40;;
14892;SDS011;7538;53.626;9.906;2022-08-01T15:11:06;5.95;;;2.20;;
14892;SDS011;7538;53.626;9.906;2022-08-01T15:13:33;10.45;;;2.53;;
14892;SDS011;7538;53.626;9.906;2022-08-01T15:16:00;6.13;;;1.90;;
14892;SDS011;7538;53.626;9.906;2022-08-01T15:18:28;5.93;;;2.13;;